« 入間航空祭その2 入間飛行場 2014/11/3 mon | トップページ | 定点 富山空港 2014/11/11 tue »

2014/11/08

道草 龍ヶ崎飛行場 2014/11/7 fri

晴天の田んぼの真ん中。上空を成田から出発した機体が通過していく。昼休みを兼ねて龍ヶ崎飛行場を覘いてみた。

RJAA 070330Z 33014KT 9999 FEW030 20/05 Q1017 NOSIG RMK 1CU030 A3004

20141108_ryugasaki_00ja738j

JAL407 RJAA-EDDF JA738J B777-346ER

20141108_ryugasaki_01ja6688

エンジン音が聞こえていて待っていたら・・

20141108_ryugasaki_02ja6688

JA6688 AS355N2

エアバスヘリコプターズの機体が、離陸試験を繰り返した。

20141108_ryugasaki_03ja4184

20141108_ryugasaki_04ja4184

JA4184 C172P CUK

離陸した後、一回周回して着陸。

20141108_ryugasaki_05ja6688

ドーファンは、相変わらず飛んでいたが、小生はお仕事、お仕事。チョットした道草でした。

なお、明日9日に神戸空港で同社の格納庫一般公開があるそうな。

|

« 入間航空祭その2 入間飛行場 2014/11/3 mon | トップページ | 定点 富山空港 2014/11/11 tue »

場外」カテゴリの記事

コメント

コメントを書く



(ウェブ上には掲載しません)


コメントは記事投稿者が公開するまで表示されません。



トラックバック


この記事へのトラックバック一覧です: 道草 龍ヶ崎飛行場 2014/11/7 fri:

« 入間航空祭その2 入間飛行場 2014/11/3 mon | トップページ | 定点 富山空港 2014/11/11 tue »